Kintbury, United Kingdom
Current Conditions -  °F | °C
As of 10:50 AM on Thursday 18 Dec 2014 (Local Time) from EGVP Reporting Station
Drizzle Drizzle  
Wind Chill: 54°   Ceiling: 800
Heat Index: 54°   Visibility: 6mi
Dew Point: 50°   Wind: 18mph
Humidity: 88%   Direction: 260°W
Pressure: 29.88"   Gusts: 30mph
Location:  51.4°N, 1.45°W
Report Text: EGVP 181050Z 26016G26KT 9999 -DZ FEW006 BKN008 12/10 Q1012 GRN NOSIG
Loading
Personal Weather Stations






























Interactive Weather Map New forecast layout! Learn more

10-Day Weather Forecast

Advertisements
Track Severe Weather on mobile